createdAt,value
2019-01-09T00:01:26.616Z,99872.94
2019-01-09T00:03:55.989Z,99866.50
2019-01-09T00:06:25.339Z,99863.83
2019-01-09T00:08:54.713Z,99861.42
2019-01-09T00:11:24.090Z,99859.95
2019-01-09T00:13:53.786Z,99860.99
2019-01-09T00:16:23.610Z,99856.70
2019-01-09T00:18:52.970Z,99859.84
2019-01-09T00:21:22.407Z,99856.33
2019-01-09T00:23:51.852Z,99848.87
2019-01-09T00:26:21.456Z,99857.86
2019-01-09T00:28:51.078Z,99863.27
2019-01-09T00:31:20.516Z,99861.05
2019-01-09T00:33:49.890Z,99861.81
2019-01-09T00:36:19.547Z,99859.94
2019-01-09T00:38:49.002Z,99864.02
2019-01-09T00:41:18.357Z,99854.97
2019-01-09T00:43:47.727Z,99858.03
2019-01-09T00:46:17.169Z,99856.02
2019-01-09T00:48:46.525Z,99863.03
2019-01-09T00:51:15.876Z,99862.56
2019-01-09T00:53:45.251Z,99856.63
2019-01-09T00:56:14.621Z,99863.84
2019-01-09T00:58:44.118Z,99877.48
2019-01-09T01:01:13.851Z,99872.14
2019-01-09T01:03:50.273Z,99862.21
2019-01-09T01:06:53.881Z,99865.61
2019-01-09T01:10:06.448Z,99864.00
2019-01-09T01:13:10.753Z,99858.80
2019-01-09T01:16:13.670Z,99863.50
2019-01-09T01:18:53.170Z,99847.85
2019-01-09T01:21:35.730Z,99857.99
2019-01-09T01:24:34.750Z,99853.02
2019-01-09T01:27:14.878Z,99849.37
2019-01-09T01:30:00.492Z,99846.97
2019-01-09T01:32:46.079Z,99846.65
2019-01-09T01:35:38.159Z,99852.36
2019-01-09T01:38:23.585Z,99857.12
2019-01-09T01:41:29.588Z,99860.80
2019-01-09T01:44:17.669Z,99855.78
2019-01-09T01:47:06.796Z,99862.28
2019-01-09T01:49:55.852Z,99870.58
2019-01-09T01:52:51.339Z,99862.20
2019-01-09T01:55:51.922Z,99873.43
2019-01-09T01:58:40.375Z,99870.27
2019-01-09T02:01:32.590Z,99872.78
2019-01-09T02:04:29.153Z,99879.02
2019-01-09T02:07:28.417Z,99878.45
2019-01-09T02:10:05.993Z,99877.96
2019-01-09T02:13:00.752Z,99865.13
2019-01-09T02:16:24.838Z,99878.56
2019-01-09T02:19:04.576Z,99873.74
2019-01-09T02:21:56.450Z,99883.75
2019-01-09T02:24:47.274Z,99870.86
2019-01-09T02:27:24.111Z,99880.47
2019-01-09T02:30:37.378Z,99883.32
2019-01-09T02:33:06.744Z,99885.84
2019-01-09T02:35:36.141Z,99888.98
2019-01-09T02:38:05.762Z,99896.36
2019-01-09T02:40:35.455Z,99893.40
2019-01-09T02:43:04.822Z,99894.00
2019-01-09T02:45:34.185Z,99903.47
2019-01-09T02:48:03.552Z,99893.90
2019-01-09T02:50:33.227Z,99900.13
2019-01-09T02:53:03.279Z,99894.52
2019-01-09T02:55:33.217Z,99892.46
2019-01-09T02:58:06.781Z,99896.29
2019-01-09T03:00:36.142Z,99879.57
2019-01-09T03:03:05.521Z,99885.23
2019-01-09T03:05:34.879Z,99873.93
2019-01-09T03:08:04.447Z,99877.05
2019-01-09T03:10:34.490Z,99868.11
2019-01-09T03:13:04.417Z,99867.02
2019-01-09T03:15:34.713Z,99872.43
2019-01-09T03:18:04.502Z,99870.70
2019-01-09T03:20:34.556Z,99880.86
2019-01-09T03:23:04.566Z,99881.47
2019-01-09T03:25:34.633Z,99875.83
2019-01-09T03:28:04.918Z,99871.55
2019-01-09T03:30:34.723Z,99868.90
2019-01-09T03:33:04.748Z,99872.33
2019-01-09T03:35:35.045Z,99856.53
2019-01-09T03:38:04.414Z,99860.78
2019-01-09T03:40:33.775Z,99855.28
2019-01-09T03:43:03.146Z,99859.78
2019-01-09T03:45:32.512Z,99850.33
2019-01-09T03:48:01.871Z,99863.37
2019-01-09T03:50:31.243Z,99856.45
2019-01-09T03:53:00.600Z,99853.59
2019-01-09T03:55:29.980Z,99854.38
2019-01-09T03:57:59.429Z,99857.31
2019-01-09T04:00:28.859Z,99853.09
2019-01-09T04:02:58.221Z,99858.51
2019-01-09T04:05:27.619Z,99867.28
2019-01-09T04:07:56.995Z,99861.27
2019-01-09T04:10:29.353Z,99860.55
2019-01-09T04:12:58.955Z,99860.08
2019-01-09T04:15:28.684Z,99860.95
2019-01-09T04:17:58.054Z,99864.89
2019-01-09T04:20:27.421Z,99866.59
2019-01-09T04:22:56.794Z,99870.58
2019-01-09T04:25:26.155Z,99866.13
2019-01-09T04:27:55.626Z,99868.78
2019-01-09T04:30:24.974Z,99878.12
2019-01-09T04:32:54.339Z,99874.78
2019-01-09T04:35:23.707Z,99877.45
2019-01-09T04:37:53.073Z,99877.47
2019-01-09T04:40:22.442Z,99879.58
2019-01-09T04:42:52.090Z,99867.24
2019-01-09T04:45:21.449Z,99869.03
2019-01-09T04:47:50.826Z,99873.92
2019-01-09T04:50:20.192Z,99871.59
2019-01-09T04:52:49.942Z,99872.53
2019-01-09T04:55:19.994Z,99868.24
2019-01-09T04:57:50.039Z,99874.53
2019-01-09T05:00:20.231Z,99871.18
2019-01-09T05:02:49.596Z,99861.91
2019-01-09T05:05:18.957Z,99872.66
2019-01-09T05:07:48.325Z,99863.81
2019-01-09T05:10:17.700Z,99871.49
2019-01-09T05:12:48.020Z,99866.97
2019-01-09T05:15:17.384Z,99865.66
2019-01-09T05:17:46.757Z,99869.99
2019-01-09T05:20:16.121Z,99871.72
2019-01-09T05:22:45.822Z,99854.59
2019-01-09T05:25:15.186Z,99868.29
2019-01-09T05:27:44.820Z,99875.27
2019-01-09T05:30:14.179Z,99874.40
2019-01-09T05:32:43.824Z,99869.44
2019-01-09T05:35:13.197Z,99875.76
2019-01-09T05:37:45.293Z,99873.89
2019-01-09T05:40:14.666Z,99871.56
2019-01-09T05:42:44.039Z,99866.64
2019-01-09T05:45:13.399Z,99869.77
2019-01-09T05:47:42.757Z,99866.97
2019-01-09T05:50:12.122Z,99867.80
2019-01-09T05:52:41.480Z,99859.95
2019-01-09T05:55:12.392Z,99862.87
2019-01-09T05:57:41.758Z,99873.52
2019-01-09T06:00:14.019Z,99866.38
2019-01-09T06:02:43.381Z,99870.27
2019-01-09T06:05:13.046Z,99864.11
2019-01-09T06:07:42.405Z,99868.05
2019-01-09T06:10:15.016Z,99867.44
2019-01-09T06:12:44.676Z,99867.41
2019-01-09T06:15:14.037Z,99866.49
2019-01-09T06:17:43.418Z,99867.09
2019-01-09T06:20:12.770Z,99867.73
2019-01-09T06:22:42.136Z,99862.20
2019-01-09T06:25:11.518Z,99863.20
2019-01-09T06:27:41.218Z,99868.98
2019-01-09T06:30:10.946Z,99868.47
2019-01-09T06:32:40.598Z,99871.66
2019-01-09T06:35:09.970Z,99872.39
2019-01-09T06:37:39.417Z,99878.70
2019-01-09T06:40:09.830Z,99875.34
2019-01-09T06:42:39.631Z,99876.39
2019-01-09T06:45:09.155Z,99884.34
2019-01-09T06:47:38.502Z,99880.06
2019-01-09T06:50:16.398Z,99883.41
2019-01-09T06:52:46.020Z,99882.80
2019-01-09T06:55:15.664Z,99894.11
2019-01-09T06:57:45.016Z,99892.09
2019-01-09T07:00:14.384Z,99893.77
2019-01-09T07:02:44.013Z,99898.66
2019-01-09T07:05:13.363Z,99902.06
2019-01-09T07:07:43.056Z,99898.31
2019-01-09T07:10:12.803Z,99904.84
2019-01-09T07:12:42.165Z,99911.14
2019-01-09T07:15:13.797Z,99913.56
2019-01-09T07:17:43.244Z,99912.30
2019-01-09T07:20:12.976Z,99911.05
2019-01-09T07:22:42.351Z,99914.30
2019-01-09T07:25:12.274Z,99910.34
2019-01-09T07:27:42.302Z,99910.45
2019-01-09T07:30:11.880Z,99918.37
2019-01-09T07:32:41.240Z,99912.90
2019-01-09T07:35:10.907Z,99914.16
2019-01-09T07:37:45.058Z,99915.96
2019-01-09T07:40:11.698Z,99917.58
2019-01-09T07:42:41.068Z,99917.77
2019-01-09T07:45:10.903Z,99924.63
2019-01-09T07:47:40.259Z,99924.86
2019-01-09T07:50:09.988Z,99926.28
2019-01-09T07:52:39.679Z,99931.30
2019-01-09T07:55:09.318Z,99933.32
2019-01-09T07:57:38.704Z,99935.42
2019-01-09T08:00:11.041Z,99939.77
2019-01-09T08:02:40.649Z,99941.73
2019-01-09T08:05:10.012Z,99946.27
2019-01-09T08:07:39.416Z,99949.22
2019-01-09T08:10:10.625Z,99956.73
2019-01-09T08:12:39.993Z,99953.67
2019-01-09T08:15:09.948Z,99954.78
2019-01-09T08:17:39.306Z,99960.33
2019-01-09T08:20:09.973Z,99961.35
2019-01-09T08:22:39.662Z,99961.88
2019-01-09T08:25:09.100Z,99958.52
2019-01-09T08:27:39.704Z,99953.64
2019-01-09T08:30:11.161Z,99950.75
2019-01-09T08:32:40.524Z,99951.11
2019-01-09T08:35:09.960Z,99956.92
2019-01-09T08:37:39.628Z,99960.42
2019-01-09T08:40:09.996Z,99960.39
2019-01-09T08:42:39.396Z,99968.11
2019-01-09T08:45:09.060Z,99975.84
2019-01-09T08:47:38.449Z,99974.95
2019-01-09T08:50:09.252Z,99979.91
2019-01-09T08:52:38.624Z,99983.82
2019-01-09T08:55:09.317Z,99987.44
2019-01-09T08:57:38.691Z,99979.20
2019-01-09T09:00:11.254Z,99995.25
2019-01-09T09:02:41.029Z,100002.55
2019-01-09T09:05:10.474Z,100005.39
2019-01-09T09:07:40.848Z,100009.70
2019-01-09T09:10:12.236Z,100003.73
2019-01-09T09:12:41.597Z,100004.00
2019-01-09T09:15:13.672Z,99998.96
2019-01-09T09:17:43.049Z,100010.30
2019-01-09T09:20:13.740Z,100006.30
2019-01-09T09:22:43.411Z,100009.31
2019-01-09T09:25:12.780Z,100004.98
2019-01-09T09:27:42.181Z,100022.54
2019-01-09T09:30:16.336Z,100021.66
2019-01-09T09:32:46.282Z,100023.06
2019-01-09T09:35:15.655Z,100031.35
2019-01-09T09:37:45.022Z,100046.20
2019-01-09T09:40:18.911Z,100051.69
2019-01-09T09:42:48.295Z,100046.80
2019-01-09T09:45:17.722Z,100059.74
2019-01-09T09:47:47.103Z,100049.30
2019-01-09T09:50:17.214Z,100051.15
2019-01-09T09:52:46.831Z,100057.70
2019-01-09T09:55:16.324Z,100050.52
2019-01-09T09:57:45.697Z,100059.86
2019-01-09T10:00:19.878Z,100056.92
2019-01-09T10:02:49.327Z,100054.74
2019-01-09T10:05:19.423Z,100046.77
2019-01-09T10:07:49.019Z,100048.30
2019-01-09T10:10:18.444Z,100056.16
2019-01-09T10:12:47.827Z,100049.55
2019-01-09T10:15:18.231Z,100053.51
2019-01-09T10:17:47.615Z,100047.33
2019-01-09T10:20:18.486Z,100062.05
2019-01-09T10:22:49.954Z,100058.89
2019-01-09T10:25:19.559Z,100053.16
2019-01-09T10:27:48.929Z,100054.33
2019-01-09T10:30:21.637Z,100057.41
2019-01-09T10:32:51.007Z,100060.78
2019-01-09T10:35:20.827Z,100064.33
2019-01-09T10:37:50.265Z,100045.61
2019-01-09T10:40:23.167Z,100047.30
2019-01-09T10:42:52.533Z,100041.44
2019-01-09T10:45:22.716Z,100041.36
2019-01-09T10:47:52.676Z,100035.00
2019-01-09T10:50:22.064Z,100039.76
2019-01-09T10:52:51.428Z,100033.47
2019-01-09T10:55:21.204Z,100038.55
2019-01-09T10:57:50.572Z,100031.01
2019-01-09T11:00:24.226Z,100027.16
2019-01-09T11:02:54.533Z,100030.66
2019-01-09T11:05:24.054Z,100023.22
2019-01-09T11:07:53.421Z,100026.09
2019-01-09T11:10:22.867Z,100023.07
2019-01-09T11:12:52.240Z,100023.47
2019-01-09T11:15:21.621Z,100020.48
2019-01-09T11:17:50.995Z,100022.21
2019-01-09T11:20:22.176Z,100022.66
2019-01-09T11:22:51.539Z,100023.75
2019-01-09T11:25:24.741Z,100021.58
2019-01-09T11:27:54.106Z,100022.12
2019-01-09T11:30:23.488Z,100023.98
2019-01-09T11:32:52.856Z,100020.15
2019-01-09T11:35:24.541Z,100020.78
2019-01-09T11:37:53.996Z,100022.76
2019-01-09T11:40:23.609Z,100025.84
2019-01-09T11:42:52.975Z,100019.05
2019-01-09T11:45:22.415Z,100022.15
2019-01-09T11:47:51.951Z,100019.36
2019-01-09T11:50:21.700Z,100021.91
2019-01-09T11:52:51.064Z,100022.00
2019-01-09T11:55:20.439Z,100013.44
2019-01-09T11:57:49.797Z,100018.52
2019-01-09T12:00:27.653Z,100024.02
2019-01-09T12:02:57.487Z,100014.27
2019-01-09T12:05:26.868Z,100017.31
2019-01-09T12:07:56.623Z,100027.03
2019-01-09T12:10:30.254Z,100016.91
2019-01-09T12:12:59.178Z,99991.77
2019-01-09T12:15:28.561Z,100005.10
2019-01-09T12:17:57.943Z,100014.08
2019-01-09T12:20:30.240Z,100014.33
2019-01-09T12:22:59.620Z,100017.45
2019-01-09T12:25:30.087Z,100016.92
2019-01-09T12:27:59.853Z,100012.38
2019-01-09T12:30:29.582Z,100010.66
2019-01-09T12:32:59.022Z,100001.11
2019-01-09T12:35:29.786Z,100007.99
2019-01-09T12:37:59.146Z,100008.44
2019-01-09T12:40:28.524Z,100016.42
2019-01-09T12:42:57.890Z,100011.22
2019-01-09T12:45:27.262Z,100006.36
2019-01-09T12:47:56.631Z,100014.09
2019-01-09T12:50:26.468Z,100012.35
2019-01-09T12:52:55.851Z,100014.27
2019-01-09T12:55:25.227Z,100020.89
2019-01-09T12:57:54.668Z,100020.47
2019-01-09T13:00:27.500Z,100009.39
2019-01-09T13:02:56.946Z,100013.22
2019-01-09T13:05:26.804Z,100007.49
2019-01-09T13:07:56.186Z,100022.00
2019-01-09T13:10:25.554Z,100016.15
2019-01-09T13:12:54.931Z,100004.81
2019-01-09T13:15:24.576Z,100021.25
2019-01-09T13:17:53.942Z,100022.04
2019-01-09T13:20:23.303Z,100018.09
2019-01-09T13:22:52.683Z,100019.86
2019-01-09T13:25:22.057Z,100015.12
2019-01-09T13:27:51.440Z,100023.91
2019-01-09T13:30:22.446Z,100021.62
2019-01-09T13:32:51.906Z,100032.55
2019-01-09T13:35:21.277Z,100030.58
2019-01-09T13:37:50.653Z,100032.30
2019-01-09T13:40:21.065Z,100024.80
2019-01-09T13:42:50.438Z,100032.02
2019-01-09T13:45:22.246Z,100026.67
2019-01-09T13:47:51.994Z,100039.02
2019-01-09T13:50:21.495Z,100032.45
2019-01-09T13:52:50.899Z,100040.67
2019-01-09T13:55:20.274Z,100043.40
2019-01-09T13:57:49.729Z,100045.30
2019-01-09T14:00:22.203Z,100054.14
2019-01-09T14:02:51.549Z,100056.52
2019-01-09T14:05:21.143Z,100041.59
2019-01-09T14:07:50.893Z,100054.45
2019-01-09T14:10:23.461Z,100040.89
2019-01-09T14:12:52.836Z,100062.23
2019-01-09T14:15:22.937Z,100053.48
2019-01-09T14:17:52.311Z,100054.80
2019-01-09T14:20:21.742Z,100038.19
2019-01-09T14:22:51.115Z,100061.14
2019-01-09T14:25:20.495Z,100066.22
2019-01-09T14:27:49.880Z,100066.66
2019-01-09T14:30:25.521Z,100068.66
2019-01-09T14:32:54.960Z,100068.64
2019-01-09T14:35:24.384Z,100068.34
2019-01-09T14:37:54.171Z,100063.92
2019-01-09T14:40:23.673Z,100064.30
2019-01-09T14:42:53.118Z,100060.15
2019-01-09T14:45:22.478Z,100074.97
2019-01-09T14:47:51.858Z,100075.23
2019-01-09T14:50:24.038Z,100077.66
2019-01-09T14:52:53.483Z,100077.54
2019-01-09T14:55:22.987Z,100081.55
2019-01-09T14:57:52.694Z,100087.38
2019-01-09T15:00:27.836Z,100082.48
2019-01-09T15:02:57.277Z,100085.80
2019-01-09T15:05:26.648Z,100087.04
2019-01-09T15:07:56.080Z,100085.98
2019-01-09T15:10:28.265Z,100078.80
2019-01-09T15:12:58.648Z,100102.80
2019-01-09T15:15:28.317Z,100099.80
2019-01-09T15:17:58.073Z,100098.74
2019-01-09T15:20:27.440Z,100110.35
2019-01-09T15:22:56.796Z,100112.38
2019-01-09T15:25:26.308Z,100117.36
2019-01-09T15:27:55.664Z,100110.66
2019-01-09T15:30:28.958Z,100115.73
2019-01-09T15:32:58.575Z,100118.05
2019-01-09T15:35:28.148Z,100120.13
2019-01-09T15:37:57.531Z,100126.59
2019-01-09T15:40:31.272Z,100122.20
2019-01-09T15:43:01.737Z,100120.76
2019-01-09T15:45:31.112Z,100125.84
2019-01-09T15:48:00.474Z,100122.24
2019-01-09T15:50:29.850Z,100139.66
2019-01-09T15:52:59.356Z,100130.98
2019-01-09T15:55:28.722Z,100147.55
2019-01-09T15:57:58.567Z,100145.69
2019-01-09T16:00:32.154Z,100148.58
2019-01-09T16:03:01.933Z,100145.54
2019-01-09T16:05:31.750Z,100149.47
2019-01-09T16:08:01.114Z,100148.66
2019-01-09T16:10:30.534Z,100150.86
2019-01-09T16:13:00.161Z,100151.36
2019-01-09T16:15:29.593Z,100152.92
2019-01-09T16:17:58.953Z,100154.30
2019-01-09T16:20:28.329Z,100155.19
2019-01-09T16:22:57.695Z,100152.80
2019-01-09T16:25:27.298Z,100148.82
2019-01-09T16:27:56.651Z,100159.40
2019-01-09T16:30:34.627Z,100155.60
2019-01-09T16:33:04.205Z,100159.10
2019-01-09T16:35:36.786Z,100166.06
2019-01-09T16:38:06.140Z,100168.09
2019-01-09T16:40:35.907Z,100169.67
2019-01-09T16:43:05.282Z,100179.86
2019-01-09T16:45:34.716Z,100176.37
2019-01-09T16:48:05.217Z,100185.41
2019-01-09T16:50:34.578Z,100186.45
2019-01-09T16:53:04.017Z,100187.52
2019-01-09T16:55:33.432Z,100195.14
2019-01-09T16:58:02.819Z,100191.86
2019-01-09T17:00:41.617Z,100190.84
2019-01-09T17:03:10.971Z,100196.52
2019-01-09T17:05:40.521Z,100194.44
2019-01-09T17:08:10.266Z,100207.22
2019-01-09T17:10:39.632Z,100204.30
2019-01-09T17:13:09.049Z,100211.59
2019-01-09T17:15:38.411Z,100201.68
2019-01-09T17:18:07.835Z,100206.34
2019-01-09T17:20:38.374Z,100211.94
2019-01-09T17:23:07.697Z,100216.87
2019-01-09T17:25:37.376Z,100214.19
2019-01-09T17:28:07.445Z,100217.27
2019-01-09T17:30:36.808Z,100222.66
2019-01-09T17:33:07.346Z,100223.72
2019-01-09T17:35:36.831Z,100222.51
2019-01-09T17:38:06.208Z,100236.16
2019-01-09T17:40:41.194Z,100237.28
2019-01-09T17:43:07.441Z,100236.70
2019-01-09T17:45:36.802Z,100238.51
2019-01-09T17:48:06.436Z,100245.48
2019-01-09T17:50:37.913Z,100245.90
2019-01-09T17:53:07.368Z,100252.66
2019-01-09T17:55:36.724Z,100256.14
2019-01-09T17:58:06.411Z,100248.02
2019-01-09T18:00:39.823Z,100253.65
2019-01-09T18:03:09.209Z,100254.19
2019-01-09T18:05:38.573Z,100251.39
2019-01-09T18:08:10.753Z,100264.30
2019-01-09T18:10:39.235Z,100264.20
2019-01-09T18:13:09.016Z,100273.56
2019-01-09T18:15:38.384Z,100283.77
2019-01-09T18:18:07.754Z,100280.80
2019-01-09T18:20:37.369Z,100275.78
2019-01-09T18:23:06.842Z,100279.28
2019-01-09T18:25:38.146Z,100285.67
2019-01-09T18:28:08.057Z,100290.79
2019-01-09T18:30:47.891Z,100297.77
2019-01-09T18:33:21.873Z,100301.28
2019-01-09T18:35:56.166Z,100301.73
2019-01-09T18:39:04.823Z,100299.59
2019-01-09T18:41:44.111Z,100317.02
2019-01-09T18:44:30.010Z,100312.64
2019-01-09T18:47:15.166Z,100312.52
2019-01-09T18:50:03.802Z,100313.80
2019-01-09T18:52:56.117Z,100323.19
2019-01-09T18:55:25.481Z,100309.73
2019-01-09T18:57:54.886Z,100318.36
2019-01-09T19:00:24.961Z,100324.00
2019-01-09T19:02:54.330Z,100335.09
2019-01-09T19:05:24.194Z,100331.37
2019-01-09T19:07:53.976Z,100331.33
2019-01-09T19:10:24.550Z,100332.62
2019-01-09T19:12:54.069Z,100343.66
2019-01-09T19:15:23.437Z,100338.45
2019-01-09T19:17:53.041Z,100341.26
2019-01-09T19:20:22.426Z,100336.11
2019-01-09T19:22:52.135Z,100346.41
2019-01-09T19:25:21.822Z,100341.13
2019-01-09T19:27:51.185Z,100349.63
2019-01-09T19:30:26.898Z,100350.83
2019-01-09T19:32:56.512Z,100344.55
2019-01-09T19:35:26.120Z,100345.59
2019-01-09T19:37:55.726Z,100349.59
2019-01-09T19:40:25.103Z,100347.88
2019-01-09T19:42:54.840Z,100352.86
2019-01-09T19:45:24.206Z,100348.14
2019-01-09T19:47:53.880Z,100360.88
2019-01-09T19:50:25.961Z,100357.77
2019-01-09T19:52:55.300Z,100357.72
2019-01-09T19:55:25.181Z,100357.83
2019-01-09T19:57:54.683Z,100357.39
2019-01-09T20:00:25.498Z,100355.01
2019-01-09T20:02:55.005Z,100354.24
2019-01-09T20:05:24.601Z,100358.09
2019-01-09T20:07:53.967Z,100362.53
2019-01-09T20:10:27.626Z,100360.31
2019-01-09T20:12:57.094Z,100368.89
2019-01-09T20:15:26.505Z,100368.28
2019-01-09T20:17:56.029Z,100377.84
2019-01-09T20:20:27.325Z,100374.73
2019-01-09T20:22:56.767Z,100375.05
2019-01-09T20:25:27.064Z,100370.28
2019-01-09T20:27:56.752Z,100379.27
2019-01-09T20:30:28.571Z,100379.39
2019-01-09T20:32:57.962Z,100386.70
2019-01-09T20:35:27.736Z,100391.67
2019-01-09T20:37:57.381Z,100389.66
2019-01-09T20:40:27.350Z,100392.75
2019-01-09T20:42:57.108Z,100401.74
2019-01-09T20:45:26.507Z,100392.73
2019-01-09T20:47:55.947Z,100407.19
2019-01-09T20:50:27.208Z,100414.25
2019-01-09T20:52:56.793Z,100404.95
2019-01-09T20:55:26.163Z,100410.80
2019-01-09T20:57:55.872Z,100410.56
2019-01-09T21:00:29.497Z,100404.73
2019-01-09T21:03:01.212Z,100417.09
2019-01-09T21:05:37.496Z,100411.49
2019-01-09T21:08:08.077Z,100421.68
2019-01-09T21:10:37.893Z,100421.48
2019-01-09T21:13:07.434Z,100426.79
2019-01-09T21:15:37.037Z,100426.98
2019-01-09T21:18:06.646Z,100421.53
2019-01-09T21:20:36.104Z,100429.94
2019-01-09T21:23:05.703Z,100427.37
2019-01-09T21:25:35.437Z,100426.61
2019-01-09T21:28:05.823Z,100432.95
2019-01-09T21:30:35.193Z,100428.77
2019-01-09T21:33:05.012Z,100431.40
2019-01-09T21:35:34.469Z,100432.36
2019-01-09T21:38:04.218Z,100437.03
2019-01-09T21:40:33.585Z,100444.47
2019-01-09T21:43:03.067Z,100443.21
2019-01-09T21:45:32.500Z,100449.98
2019-01-09T21:48:01.954Z,100449.41
2019-01-09T21:50:31.817Z,100443.09
2019-01-09T21:53:01.179Z,100436.87
2019-01-09T21:55:30.542Z,100444.50
2019-01-09T21:57:59.918Z,100442.19
2019-01-09T22:00:29.353Z,100445.82
2019-01-09T22:02:58.725Z,100442.20
2019-01-09T22:05:28.836Z,100438.62
2019-01-09T22:07:58.411Z,100437.48
2019-01-09T22:10:34.348Z,100448.80
2019-01-09T22:13:05.565Z,100436.36
2019-01-09T22:15:34.987Z,100455.75
2019-01-09T22:18:04.693Z,100462.19
2019-01-09T22:20:34.139Z,100461.63
2019-01-09T22:23:03.575Z,100453.06
2019-01-09T22:25:32.932Z,100463.12
2019-01-09T22:28:02.372Z,100456.92
2019-01-09T22:30:31.744Z,100453.25
2019-01-09T22:33:02.195Z,100452.99
2019-01-09T22:35:31.547Z,100452.12
2019-01-09T22:38:00.906Z,100454.65
2019-01-09T22:40:30.285Z,100466.52
2019-01-09T22:42:59.871Z,100462.45
2019-01-09T22:45:29.248Z,100469.98
2019-01-09T22:47:58.613Z,100471.52
2019-01-09T22:50:27.986Z,100474.83
2019-01-09T22:52:57.343Z,100468.34
2019-01-09T22:55:26.721Z,100476.98
2019-01-09T22:57:56.080Z,100472.93
2019-01-09T23:00:38.721Z,100478.98
2019-01-09T23:03:11.709Z,100476.21
2019-01-09T23:05:41.724Z,100470.41
2019-01-09T23:08:11.362Z,100470.49
2019-01-09T23:10:41.142Z,100475.58
2019-01-09T23:13:10.889Z,100476.37
2019-01-09T23:15:40.328Z,100477.70
2019-01-09T23:18:09.767Z,100471.92
2019-01-09T23:20:39.148Z,100476.88
2019-01-09T23:23:09.244Z,100476.00
2019-01-09T23:25:38.689Z,100470.84
2019-01-09T23:28:08.184Z,100476.56
2019-01-09T23:30:37.979Z,100481.58
2019-01-09T23:33:07.409Z,100477.40
2019-01-09T23:35:37.242Z,100488.41
2019-01-09T23:38:06.671Z,100484.60
2019-01-09T23:40:36.164Z,100490.39
2019-01-09T23:43:05.871Z,100499.86
2019-01-09T23:45:35.264Z,100499.77
2019-01-09T23:48:04.623Z,100500.08
2019-01-09T23:50:34.002Z,100504.27
2019-01-09T23:53:03.353Z,100514.27
2019-01-09T23:55:32.723Z,100508.59
2019-01-09T23:58:02.079Z,100508.17
